createdAt,value
2018-07-17T00:02:27.728Z,101748.11
2018-07-17T00:04:56.393Z,101748.55
2018-07-17T00:07:25.224Z,101745.86
2018-07-17T00:09:54.053Z,101592.42
2018-07-17T00:12:22.720Z,101748.84
2018-07-17T00:14:51.491Z,101749.53
2018-07-17T00:17:20.195Z,101751.42
2018-07-17T00:19:48.993Z,101755.50
2018-07-17T00:22:17.837Z,101753.31
2018-07-17T00:24:46.526Z,101610.88
2018-07-17T00:27:15.238Z,101754.48
2018-07-17T00:29:43.872Z,101755.84
2018-07-17T00:32:12.530Z,101763.64
2018-07-17T00:34:41.261Z,101757.18
2018-07-17T00:37:10.011Z,101761.20
2018-07-17T00:39:38.658Z,101758.09
2018-07-17T00:42:07.285Z,101758.47
2018-07-17T00:44:35.972Z,101761.08
2018-07-17T00:47:04.577Z,101765.65
2018-07-17T00:49:33.216Z,101763.08
2018-07-17T00:52:01.891Z,101763.20
2018-07-17T00:54:30.534Z,101765.27
2018-07-17T00:56:59.214Z,101762.95
2018-07-17T00:59:27.938Z,101762.48
2018-07-17T01:02:01.725Z,101768.25
2018-07-17T01:04:35.570Z,101768.31
2018-07-17T01:07:09.347Z,101766.69
2018-07-17T01:09:43.316Z,101768.87
2018-07-17T01:12:12.867Z,101772.22
2018-07-17T01:14:50.860Z,101766.73
2018-07-17T01:17:19.579Z,101768.97
2018-07-17T01:19:48.291Z,101772.87
2018-07-17T01:22:17.014Z,101770.86
2018-07-17T01:24:45.748Z,101771.39
2018-07-17T01:27:14.402Z,101770.30
2018-07-17T01:29:43.121Z,101770.42
2018-07-17T01:32:11.781Z,101768.47
2018-07-17T01:34:40.420Z,101771.27
2018-07-17T01:37:09.160Z,101769.20
2018-07-17T01:39:37.953Z,101776.06
2018-07-17T01:42:06.789Z,101778.17
2018-07-17T01:44:35.445Z,101778.41
2018-07-17T01:47:04.090Z,101778.91
2018-07-17T01:49:32.699Z,101777.36
2018-07-17T01:52:01.314Z,101787.45
2018-07-17T01:54:30.031Z,101784.91
2018-07-17T01:56:58.693Z,101787.37
2018-07-17T01:59:27.407Z,101783.80
2018-07-17T02:01:56.051Z,101780.69
2018-07-17T02:04:24.642Z,101794.21
2018-07-17T02:06:53.708Z,101785.59
2018-07-17T02:09:22.358Z,101790.33
2018-07-17T02:11:51.047Z,101782.19
2018-07-17T02:14:19.707Z,101782.34
2018-07-17T02:16:48.303Z,101790.20
2018-07-17T02:19:16.972Z,101792.91
2018-07-17T02:21:45.591Z,101793.77
2018-07-17T02:24:14.264Z,101789.84
2018-07-17T02:26:42.844Z,101792.42
2018-07-17T02:29:11.453Z,101791.94
2018-07-17T02:31:40.131Z,101790.84
2018-07-17T02:34:08.752Z,101793.03
2018-07-17T02:36:37.523Z,101796.04
2018-07-17T02:39:07.852Z,101797.86
2018-07-17T02:41:36.565Z,101799.77
2018-07-17T02:44:05.212Z,101804.88
2018-07-17T02:46:33.813Z,101799.89
2018-07-17T02:49:02.410Z,101802.36
2018-07-17T02:51:31.492Z,101806.58
2018-07-17T02:54:00.300Z,101805.24
2018-07-17T02:56:28.954Z,101803.91
2018-07-17T02:58:57.725Z,101795.87
2018-07-17T03:01:26.380Z,101802.89
2018-07-17T03:03:55.042Z,101803.95
2018-07-17T03:06:23.904Z,101796.49
2018-07-17T03:08:52.626Z,101805.48
2018-07-17T03:11:21.258Z,101803.50
2018-07-17T03:13:49.969Z,101807.47
2018-07-17T03:16:18.719Z,101802.55
2018-07-17T03:18:47.358Z,101802.73
2018-07-17T03:21:16.111Z,101801.59
2018-07-17T03:23:44.812Z,101805.43
2018-07-17T03:26:13.472Z,101802.70
2018-07-17T03:28:42.094Z,101801.59
2018-07-17T03:31:10.740Z,101801.83
2018-07-17T03:33:39.374Z,101798.28
2018-07-17T03:36:08.073Z,101803.09
2018-07-17T03:38:37.052Z,101800.97
2018-07-17T03:41:05.678Z,101803.63
2018-07-17T03:43:34.420Z,101800.42
2018-07-17T03:46:03.172Z,101800.40
2018-07-17T03:48:31.894Z,101799.84
2018-07-17T03:51:00.495Z,101805.14
2018-07-17T03:53:29.112Z,101796.84
2018-07-17T03:55:57.927Z,101799.82
2018-07-17T03:58:26.614Z,101800.17
2018-07-17T04:00:55.370Z,101801.19
2018-07-17T04:03:23.988Z,101801.28
2018-07-17T04:05:52.716Z,101801.92
2018-07-17T04:08:21.476Z,101799.57
2018-07-17T04:10:50.236Z,101800.70
2018-07-17T04:13:18.856Z,101804.25
2018-07-17T04:15:47.501Z,101803.80
2018-07-17T04:18:16.220Z,101794.02
2018-07-17T04:20:44.979Z,101799.80
2018-07-17T04:23:13.655Z,101804.55
2018-07-17T04:25:42.319Z,101802.11
2018-07-17T04:28:11.023Z,101803.45
2018-07-17T04:30:39.699Z,101801.59
2018-07-17T04:33:08.407Z,101790.86
2018-07-17T04:35:37.038Z,101794.70
2018-07-17T04:38:06.020Z,101795.41
2018-07-17T04:40:34.594Z,101797.06
2018-07-17T04:43:03.337Z,101787.32
2018-07-17T04:45:32.288Z,101792.17
2018-07-17T04:48:00.977Z,101788.75
2018-07-17T04:50:29.622Z,101792.80
2018-07-17T04:52:58.258Z,101794.14
2018-07-17T04:55:26.960Z,101790.09
2018-07-17T04:57:55.707Z,101794.61
2018-07-17T05:00:24.397Z,101800.35
2018-07-17T05:02:53.203Z,101796.52
2018-07-17T05:05:21.912Z,101794.98
2018-07-17T05:07:50.682Z,101790.36
2018-07-17T05:10:19.337Z,101795.77
2018-07-17T05:12:47.958Z,101791.75
2018-07-17T05:15:16.709Z,101798.25
2018-07-17T05:17:45.386Z,101799.41
2018-07-17T05:20:13.984Z,101788.37
2018-07-17T05:22:42.667Z,101792.31
2018-07-17T05:25:11.318Z,101792.87
2018-07-17T05:27:39.990Z,101794.67
2018-07-17T05:30:08.689Z,101793.02
2018-07-17T05:32:37.326Z,101796.77
2018-07-17T05:35:06.108Z,101794.92
2018-07-17T05:37:34.759Z,101793.58
2018-07-17T05:40:03.457Z,101795.19
2018-07-17T05:42:32.224Z,101790.17
2018-07-17T05:45:00.841Z,101788.55
2018-07-17T05:47:29.526Z,101788.73
2018-07-17T05:49:58.224Z,101785.55
2018-07-17T05:52:26.869Z,101795.35
2018-07-17T05:54:55.514Z,101796.01
2018-07-17T05:57:24.191Z,101792.33
2018-07-17T05:59:53.117Z,101794.67
2018-07-17T06:02:21.797Z,101797.95
2018-07-17T06:04:50.462Z,101798.40
2018-07-17T06:07:19.142Z,101798.30
2018-07-17T06:09:47.842Z,101796.09
2018-07-17T06:12:16.497Z,101795.08
2018-07-17T06:14:45.207Z,101795.92
2018-07-17T06:17:13.974Z,101797.26
2018-07-17T06:19:42.589Z,101794.55
2018-07-17T06:22:11.227Z,101796.59
2018-07-17T06:24:39.928Z,101796.58
2018-07-17T06:27:08.626Z,101800.47
2018-07-17T06:29:37.301Z,101802.46
2018-07-17T06:32:05.953Z,101808.23
2018-07-17T06:34:34.680Z,101806.71
2018-07-17T06:37:03.354Z,101805.66
2018-07-17T06:39:32.120Z,101805.81
2018-07-17T06:42:01.073Z,101808.83
2018-07-17T06:44:29.796Z,101812.02
2018-07-17T06:46:58.505Z,101805.70
2018-07-17T06:49:27.170Z,101800.59
2018-07-17T06:51:55.833Z,101802.59
2018-07-17T06:54:24.685Z,101704.60
2018-07-17T06:56:53.318Z,101801.19
2018-07-17T06:59:22.192Z,101801.11
2018-07-17T07:01:50.829Z,101802.47
2018-07-17T07:04:19.487Z,101803.69
2018-07-17T07:06:48.114Z,101804.79
2018-07-17T07:09:17.368Z,101803.14
2018-07-17T07:11:46.133Z,101810.49
2018-07-17T07:14:14.737Z,101807.66
2018-07-17T07:16:43.401Z,101818.02
2018-07-17T07:19:12.042Z,101814.89
2018-07-17T07:21:40.707Z,101814.58
2018-07-17T07:24:09.446Z,101812.11
2018-07-17T07:26:38.120Z,101810.98
2018-07-17T07:29:06.768Z,101812.25
2018-07-17T07:31:35.404Z,101816.76
2018-07-17T07:34:04.144Z,101815.00
2018-07-17T07:36:32.766Z,101819.95
2018-07-17T07:39:01.384Z,101819.57
2018-07-17T07:41:30.039Z,101814.13
2018-07-17T07:43:58.828Z,101821.00
2018-07-17T07:46:27.665Z,101816.00
2018-07-17T07:48:56.518Z,101812.89
2018-07-17T07:51:25.127Z,101812.84
2018-07-17T07:53:53.841Z,101814.50
2018-07-17T07:56:22.472Z,101810.94
2018-07-17T07:58:51.136Z,101811.09
2018-07-17T08:01:19.854Z,101817.33
2018-07-17T08:03:48.481Z,101809.26
2018-07-17T08:06:17.134Z,101814.03
2018-07-17T08:08:45.881Z,101812.16
2018-07-17T08:11:14.604Z,101815.97
2018-07-17T08:13:43.269Z,101814.06
2018-07-17T08:16:11.998Z,101808.86
2018-07-17T08:18:40.703Z,101807.39
2018-07-17T08:21:09.415Z,101802.94
2018-07-17T08:23:38.098Z,101807.59
2018-07-17T08:26:06.759Z,101807.70
2018-07-17T08:28:35.385Z,101812.42
2018-07-17T08:31:04.143Z,101814.30
2018-07-17T08:33:33.086Z,101812.29
2018-07-17T08:36:01.835Z,101816.56
2018-07-17T08:38:30.461Z,101815.20
2018-07-17T08:40:59.142Z,101819.01
2018-07-17T08:43:27.910Z,101817.59
2018-07-17T08:45:56.418Z,101820.45
2018-07-17T08:48:25.012Z,101822.06
2018-07-17T08:50:53.743Z,101823.94
2018-07-17T08:53:22.439Z,101825.78
2018-07-17T08:55:51.119Z,101823.00
2018-07-17T08:58:19.812Z,101818.86
2018-07-17T09:00:48.521Z,101821.67
2018-07-17T09:03:23.818Z,101816.36
2018-07-17T09:05:52.510Z,101816.80
2018-07-17T09:08:21.204Z,101820.59
2018-07-17T09:10:50.017Z,101814.59
2018-07-17T09:13:18.639Z,101818.75
2018-07-17T09:15:47.232Z,101821.14
2018-07-17T09:18:16.015Z,101822.09
2018-07-17T09:20:44.661Z,101734.31
2018-07-17T09:23:13.286Z,101828.92
2018-07-17T09:25:41.943Z,101821.41
2018-07-17T09:28:10.544Z,101823.37
2018-07-17T09:30:44.453Z,101826.67
2018-07-17T09:33:13.170Z,101819.56
2018-07-17T09:35:41.819Z,101818.28
2018-07-17T09:38:10.456Z,101823.15
2018-07-17T09:40:39.073Z,101815.11
2018-07-17T09:43:07.957Z,101821.81
2018-07-17T09:45:36.629Z,101811.66
2018-07-17T09:48:05.425Z,101812.00
2018-07-17T09:50:34.121Z,101811.63
2018-07-17T09:53:02.930Z,101812.66
2018-07-17T09:55:31.807Z,101809.67
2018-07-17T09:58:00.580Z,101803.63
2018-07-17T10:00:39.122Z,101803.71
2018-07-17T10:03:07.935Z,101794.88
2018-07-17T10:05:36.644Z,101803.46
2018-07-17T10:08:05.350Z,101814.55
2018-07-17T10:10:34.217Z,101802.98
2018-07-17T10:13:02.960Z,101793.99
2018-07-17T10:15:31.715Z,101804.24
2018-07-17T10:18:00.343Z,101803.91
2018-07-17T10:20:28.985Z,101801.52
2018-07-17T10:22:57.816Z,101799.66
2018-07-17T10:25:26.575Z,101803.43
2018-07-17T10:27:55.344Z,101792.58
2018-07-17T10:30:24.064Z,101795.52
2018-07-17T10:32:52.686Z,101805.47
2018-07-17T10:35:21.344Z,101795.63
2018-07-17T10:37:50.078Z,101799.52
2018-07-17T10:40:18.785Z,101792.41
2018-07-17T10:42:47.570Z,101799.84
2018-07-17T10:45:16.357Z,101794.11
2018-07-17T10:47:45.043Z,101796.15
2018-07-17T10:50:13.754Z,101802.67
2018-07-17T10:52:42.397Z,101799.11
2018-07-17T10:55:11.032Z,101802.03
2018-07-17T10:57:40.273Z,101794.97
2018-07-17T11:00:08.908Z,101797.36
2018-07-17T11:02:37.670Z,101803.37
2018-07-17T11:05:06.307Z,101799.96
2018-07-17T11:07:35.003Z,101790.34
2018-07-17T11:10:03.743Z,101806.23
2018-07-17T11:12:32.370Z,101799.99
2018-07-17T11:15:00.987Z,101799.87
2018-07-17T11:17:29.948Z,101796.45
2018-07-17T11:19:58.641Z,101808.77
2018-07-17T11:22:27.361Z,101796.80
2018-07-17T11:24:56.015Z,101795.21
2018-07-17T11:27:24.804Z,101794.32
2018-07-17T11:29:53.437Z,101791.83
2018-07-17T11:32:22.030Z,101800.94
2018-07-17T11:34:50.692Z,101802.55
2018-07-17T11:37:19.533Z,101796.75
2018-07-17T11:39:48.235Z,101798.70
2018-07-17T11:42:16.930Z,101790.73
2018-07-17T11:44:45.593Z,101792.52
2018-07-17T11:47:14.206Z,101798.72
2018-07-17T11:49:42.863Z,101802.47
2018-07-17T11:52:11.456Z,101800.99
2018-07-17T11:54:40.089Z,101793.36
2018-07-17T11:57:08.843Z,101796.91
2018-07-17T11:59:37.655Z,101793.45
2018-07-17T12:02:06.468Z,101797.34
2018-07-17T12:04:35.326Z,101799.66
2018-07-17T12:07:03.916Z,101803.41
2018-07-17T12:09:32.617Z,101807.48
2018-07-17T12:12:01.391Z,101794.09
2018-07-17T12:14:30.143Z,101795.72
2018-07-17T12:16:58.942Z,101796.57
2018-07-17T12:19:27.720Z,101800.08
2018-07-17T12:21:56.401Z,101793.26
2018-07-17T12:24:25.238Z,101780.44
2018-07-17T12:26:53.877Z,101799.84
2018-07-17T12:29:22.565Z,101790.81
2018-07-17T12:31:51.236Z,101792.69
2018-07-17T12:34:19.807Z,101790.91
2018-07-17T12:36:48.535Z,101791.30
2018-07-17T12:39:17.167Z,101787.42
2018-07-17T12:41:45.889Z,101783.13
2018-07-17T12:44:14.528Z,101782.95
2018-07-17T12:46:43.097Z,101782.44
2018-07-17T12:49:11.871Z,101779.27
2018-07-17T12:51:40.558Z,101776.91
2018-07-17T12:54:09.248Z,101783.53
2018-07-17T12:56:37.932Z,101777.87
2018-07-17T12:59:06.655Z,101779.84
2018-07-17T13:01:35.468Z,101782.83
2018-07-17T13:04:04.311Z,101773.14
2018-07-17T13:06:33.185Z,101771.19
2018-07-17T13:09:01.861Z,101774.80
2018-07-17T13:11:30.538Z,101771.83
2018-07-17T13:13:59.523Z,101774.33
2018-07-17T13:16:28.418Z,101765.02
2018-07-17T13:18:57.081Z,101763.73
2018-07-17T13:21:26.440Z,101755.47
2018-07-17T13:23:55.369Z,101757.98
2018-07-17T13:26:24.127Z,101755.31
2018-07-17T13:28:52.953Z,101756.55
2018-07-17T13:31:21.736Z,101755.00
2018-07-17T13:33:50.501Z,101754.11
2018-07-17T13:36:19.161Z,101751.13
2018-07-17T13:38:48.017Z,101759.60
2018-07-17T13:41:16.717Z,101760.72
2018-07-17T13:43:45.376Z,101763.64
2018-07-17T13:46:14.261Z,101762.55
2018-07-17T13:48:42.961Z,101758.43
2018-07-17T13:51:11.780Z,101756.68
2018-07-17T13:53:40.402Z,101755.04
2018-07-17T13:56:09.292Z,101745.02
2018-07-17T13:58:37.915Z,101749.50
2018-07-17T14:01:06.681Z,101743.47
2018-07-17T14:03:35.937Z,101736.38
2018-07-17T14:06:04.816Z,101738.85
2018-07-17T14:08:33.389Z,101735.98
2018-07-17T14:11:02.084Z,101740.07
2018-07-17T14:13:31.455Z,101730.47
2018-07-17T14:16:00.278Z,101727.23
2018-07-17T14:18:29.016Z,101727.51
2018-07-17T14:20:57.721Z,101725.83
2018-07-17T14:23:26.509Z,101726.38
2018-07-17T14:25:55.199Z,101722.55
2018-07-17T14:28:23.850Z,101723.94
2018-07-17T14:30:52.618Z,101723.42
2018-07-17T14:33:21.433Z,101718.27
2018-07-17T14:35:50.096Z,101723.33
2018-07-17T14:38:18.716Z,101726.65
2018-07-17T14:40:47.693Z,101724.83
2018-07-17T14:43:16.456Z,101727.56
2018-07-17T14:45:45.101Z,101726.44
2018-07-17T14:48:14.039Z,101715.47
2018-07-17T14:50:42.671Z,101715.47
2018-07-17T14:53:11.439Z,101723.95
2018-07-17T14:55:40.077Z,101720.33
2018-07-17T14:58:08.797Z,101715.91
2018-07-17T15:00:37.445Z,101707.91
2018-07-17T15:03:06.230Z,101708.23
2018-07-17T15:05:35.127Z,101711.52
2018-07-17T15:08:03.845Z,101714.51
2018-07-17T15:10:32.463Z,101700.59
2018-07-17T15:13:01.187Z,101712.84
2018-07-17T15:15:30.067Z,101706.25
2018-07-17T15:17:58.749Z,101719.70
2018-07-17T15:20:27.518Z,101715.58
2018-07-17T15:22:56.164Z,101704.55
2018-07-17T15:25:24.816Z,101707.31
2018-07-17T15:27:53.525Z,101713.97
2018-07-17T15:30:22.295Z,101705.51
2018-07-17T15:32:51.120Z,101711.79
2018-07-17T15:35:23.194Z,101716.22
2018-07-17T15:37:51.939Z,101706.34
2018-07-17T15:40:20.628Z,101707.29
2018-07-17T15:42:49.412Z,101705.47
2018-07-17T15:45:18.319Z,101701.69
2018-07-17T15:47:47.032Z,101706.81
2018-07-17T15:50:15.786Z,101705.40
2018-07-17T15:52:44.440Z,101700.19
2018-07-17T15:55:13.080Z,101706.14
2018-07-17T15:57:41.756Z,101699.70
2018-07-17T16:00:10.584Z,101704.85
2018-07-17T16:02:39.267Z,101698.03
2018-07-17T16:05:08.026Z,101697.78
2018-07-17T16:07:37.077Z,101698.31
2018-07-17T16:10:06.073Z,101697.67
2018-07-17T16:12:34.829Z,101687.84
2018-07-17T16:15:03.661Z,101689.13
2018-07-17T16:17:32.655Z,101693.23
2018-07-17T16:20:01.559Z,101689.61
2018-07-17T16:22:30.436Z,101689.92
2018-07-17T16:24:59.152Z,101693.67
2018-07-17T16:27:27.878Z,101696.64
2018-07-17T16:29:56.840Z,101698.66
2018-07-17T16:32:25.525Z,101696.20
2018-07-17T16:34:54.250Z,101693.53
2018-07-17T16:37:23.078Z,101691.58
2018-07-17T16:39:52.726Z,101692.89
2018-07-17T16:42:21.385Z,101697.30
2018-07-17T16:44:50.051Z,101689.98
2018-07-17T16:47:18.744Z,101692.59
2018-07-17T16:49:47.368Z,101694.60
2018-07-17T16:52:16.168Z,101563.84
2018-07-17T16:54:44.866Z,101689.67
2018-07-17T16:57:13.543Z,101689.31
2018-07-17T16:59:42.183Z,101690.52
2018-07-17T17:02:10.906Z,101693.34
2018-07-17T17:04:39.589Z,101694.78
2018-07-17T17:07:08.346Z,101690.38
2018-07-17T17:09:37.426Z,101690.63
2018-07-17T17:12:06.479Z,101692.28
2018-07-17T17:14:35.295Z,101695.14
2018-07-17T17:17:03.953Z,101696.42
2018-07-17T17:19:32.638Z,101692.42
2018-07-17T17:22:01.395Z,101691.77
2018-07-17T17:24:30.098Z,101690.26
2018-07-17T17:26:58.774Z,101692.87
2018-07-17T17:29:27.554Z,101693.48
2018-07-17T17:31:56.127Z,101695.77
2018-07-17T17:34:24.818Z,101692.52
2018-07-17T17:36:53.402Z,101682.56
2018-07-17T17:39:22.054Z,101692.89
2018-07-17T17:41:50.730Z,101692.62
2018-07-17T17:44:19.398Z,101685.83
2018-07-17T17:46:48.018Z,101691.61
2018-07-17T17:49:16.735Z,101690.77
2018-07-17T17:51:45.386Z,101688.16
2018-07-17T17:54:14.067Z,101690.26
2018-07-17T17:56:42.736Z,101690.32
2018-07-17T17:59:11.409Z,101692.09
2018-07-17T18:01:40.159Z,101690.91
2018-07-17T18:04:08.841Z,101693.12
2018-07-17T18:06:37.558Z,101695.73
2018-07-17T18:09:07.877Z,101694.37
2018-07-17T18:11:37.462Z,101695.65
2018-07-17T18:14:06.192Z,101692.41
2018-07-17T18:16:34.863Z,101688.03
2018-07-17T18:19:03.544Z,101700.00
2018-07-17T18:21:32.293Z,101699.61
2018-07-17T18:24:01.062Z,101695.66
2018-07-17T18:26:29.841Z,101703.34
2018-07-17T18:28:58.570Z,101702.83
2018-07-17T18:31:27.271Z,101697.38
2018-07-17T18:33:55.922Z,101698.37
2018-07-17T18:36:24.569Z,101700.73
2018-07-17T18:38:53.246Z,101698.26
2018-07-17T18:41:21.941Z,101698.60
2018-07-17T18:43:50.544Z,101697.63
2018-07-17T18:46:19.444Z,101701.41
2018-07-17T18:48:48.470Z,101695.74
2018-07-17T18:51:17.597Z,101701.36
2018-07-17T18:53:46.515Z,101695.95
2018-07-17T18:56:15.103Z,101697.47
2018-07-17T18:58:44.743Z,101697.84
2018-07-17T19:01:13.461Z,101702.44
2018-07-17T19:03:42.058Z,101704.84
2018-07-17T19:06:10.833Z,101712.33
2018-07-17T19:08:39.691Z,101711.94
2018-07-17T19:11:08.561Z,101718.74
2018-07-17T19:13:37.585Z,101717.05
2018-07-17T19:16:06.308Z,101717.35
2018-07-17T19:18:34.966Z,101709.61
2018-07-17T19:21:03.771Z,101717.04
2018-07-17T19:23:32.419Z,101720.75
2018-07-17T19:26:01.206Z,101714.02
2018-07-17T19:28:29.772Z,101720.27
2018-07-17T19:30:58.417Z,101719.61
2018-07-17T19:33:27.146Z,101723.18
2018-07-17T19:35:55.788Z,101718.96
2018-07-17T19:38:24.481Z,101721.84
2018-07-17T19:40:53.196Z,101720.99
2018-07-17T19:43:21.888Z,101722.18
2018-07-17T19:45:50.589Z,101719.67
2018-07-17T19:48:19.446Z,101724.87
2018-07-17T19:50:48.084Z,101722.18
2018-07-17T19:53:16.790Z,101723.03
2018-07-17T19:55:45.425Z,101724.90
2018-07-17T19:58:14.100Z,101726.93
2018-07-17T20:00:42.813Z,101733.80
2018-07-17T20:03:11.417Z,101727.39
2018-07-17T20:05:40.105Z,101730.09
2018-07-17T20:08:08.831Z,101727.22
2018-07-17T20:10:37.612Z,101725.50
2018-07-17T20:13:06.252Z,101725.34
2018-07-17T20:15:35.109Z,101585.78
2018-07-17T20:18:03.854Z,101723.64
2018-07-17T20:20:32.747Z,101728.16
2018-07-17T20:23:01.698Z,101729.14
2018-07-17T20:25:30.327Z,101727.76
2018-07-17T20:27:59.032Z,101733.43
2018-07-17T20:30:27.604Z,101736.13
2018-07-17T20:32:56.291Z,101743.33
2018-07-17T20:35:24.975Z,101740.44
2018-07-17T20:37:53.615Z,101741.78
2018-07-17T20:40:22.313Z,101747.29
2018-07-17T20:42:50.961Z,101744.94
2018-07-17T20:45:19.643Z,101749.27
2018-07-17T20:47:48.360Z,101739.66
2018-07-17T20:50:17.096Z,101741.98
2018-07-17T20:52:46.173Z,101741.14
2018-07-17T20:55:14.648Z,101751.91
2018-07-17T20:57:44.244Z,101748.37
2018-07-17T21:00:12.926Z,101747.12
2018-07-17T21:02:41.555Z,101746.42
2018-07-17T21:05:10.289Z,101745.47
2018-07-17T21:07:39.069Z,101739.16
2018-07-17T21:10:08.325Z,101752.41
2018-07-17T21:12:37.087Z,101747.34
2018-07-17T21:15:06.121Z,101747.95
2018-07-17T21:17:34.862Z,101751.05
2018-07-17T21:20:03.515Z,101748.42
2018-07-17T21:22:32.280Z,101752.11
2018-07-17T21:25:00.931Z,101752.96
2018-07-17T21:27:29.534Z,101745.51
2018-07-17T21:29:58.256Z,101746.28
2018-07-17T21:32:26.922Z,101749.41
2018-07-17T21:34:55.580Z,101750.58
2018-07-17T21:37:24.247Z,101749.49
2018-07-17T21:39:53.038Z,101752.83
2018-07-17T21:42:21.713Z,101753.67
2018-07-17T21:44:50.321Z,101756.27
2018-07-17T21:47:18.891Z,101760.13
2018-07-17T21:49:47.427Z,101766.47
2018-07-17T21:52:16.114Z,101758.95
2018-07-17T21:54:44.756Z,101762.23
2018-07-17T21:57:13.366Z,101761.82
2018-07-17T21:59:42.145Z,101758.31
2018-07-17T22:02:10.820Z,101752.88
2018-07-17T22:04:39.471Z,101757.38
2018-07-17T22:07:08.140Z,101760.69
2018-07-17T22:09:37.107Z,101759.64
2018-07-17T22:12:05.797Z,101762.14
2018-07-17T22:14:34.414Z,101767.80
2018-07-17T22:17:03.059Z,101766.06
2018-07-17T22:19:31.700Z,101771.86
2018-07-17T22:22:00.427Z,101776.91
2018-07-17T22:24:29.065Z,101773.89
2018-07-17T22:26:57.655Z,101774.14
2018-07-17T22:29:26.278Z,101776.78
2018-07-17T22:31:55.174Z,101778.98
2018-07-17T22:34:23.803Z,101779.22
2018-07-17T22:36:52.430Z,101781.59
2018-07-17T22:39:21.094Z,101778.78
2018-07-17T22:41:49.695Z,101786.13
2018-07-17T22:44:18.334Z,101786.34
2018-07-17T22:46:46.977Z,101791.92
2018-07-17T22:49:21.567Z,101795.46
2018-07-17T22:51:51.267Z,101793.84
2018-07-17T22:54:19.955Z,101793.00
2018-07-17T22:56:48.858Z,101793.49
2018-07-17T22:59:18.535Z,101795.23
2018-07-17T23:01:47.496Z,101798.27
2018-07-17T23:04:16.466Z,101799.42
2018-07-17T23:06:45.207Z,101795.75
2018-07-17T23:09:13.785Z,101796.91
2018-07-17T23:11:42.413Z,101788.86
2018-07-17T23:14:11.091Z,101789.84
2018-07-17T23:16:39.952Z,101792.88
2018-07-17T23:19:08.624Z,101790.99
2018-07-17T23:21:37.344Z,101800.59
2018-07-17T23:24:06.117Z,101797.05
2018-07-17T23:26:35.019Z,101798.89
2018-07-17T23:29:03.690Z,101795.75
2018-07-17T23:31:32.328Z,101789.97
2018-07-17T23:34:01.132Z,101800.34
2018-07-17T23:36:29.785Z,101795.77
2018-07-17T23:38:58.526Z,101798.58
2018-07-17T23:41:27.298Z,101801.16
2018-07-17T23:43:55.982Z,101804.13
2018-07-17T23:46:24.822Z,101802.14
2018-07-17T23:48:53.411Z,101799.36
2018-07-17T23:51:22.172Z,101803.25
2018-07-17T23:53:50.880Z,101804.42
2018-07-17T23:56:19.506Z,101805.83
2018-07-17T23:58:48.479Z,101800.75
